createdAt,value
2023-02-05T00:02:04.322Z,103149.00
2023-02-05T00:04:36.583Z,103136.19
2023-02-05T00:07:08.240Z,103113.91
2023-02-05T00:09:40.967Z,103112.50
2023-02-05T00:12:12.260Z,103111.50
2023-02-05T00:14:43.548Z,103116.13
2023-02-05T00:17:14.850Z,103106.28
2023-02-05T00:19:46.104Z,103117.53
2023-02-05T00:22:17.377Z,103071.09
2023-02-05T00:24:48.707Z,103083.53
2023-02-05T00:27:19.971Z,103083.94
2023-02-05T00:29:51.252Z,103086.97
2023-02-05T00:32:22.562Z,103083.75
2023-02-05T00:34:53.830Z,103073.63
2023-02-05T00:37:25.099Z,103077.13
2023-02-05T00:39:56.391Z,103079.63
2023-02-05T00:42:28.132Z,103057.28
2023-02-05T00:44:59.393Z,103044.25
2023-02-05T00:47:30.655Z,103062.19
2023-02-05T00:50:01.917Z,103065.59
2023-02-05T00:52:33.209Z,103056.38
2023-02-05T00:55:04.959Z,103047.34
2023-02-05T00:57:36.224Z,103034.75
2023-02-05T01:00:08.793Z,103049.56
2023-02-05T01:02:40.283Z,103024.41
2023-02-05T01:05:11.712Z,103011.00
2023-02-05T01:07:44.130Z,103040.38
2023-02-05T01:10:15.625Z,103014.28
2023-02-05T01:12:49.122Z,103027.13
2023-02-05T01:15:20.876Z,103034.25
2023-02-05T01:17:52.363Z,103040.38
2023-02-05T01:20:23.701Z,103034.25
2023-02-05T01:22:55.778Z,103014.19
2023-02-05T01:25:27.048Z,103022.81
2023-02-05T01:27:58.439Z,103006.69
2023-02-05T01:30:29.744Z,103006.88
2023-02-05T01:33:01.458Z,103013.47
2023-02-05T01:35:33.218Z,102982.94
2023-02-05T01:38:04.684Z,102974.81
2023-02-05T01:40:35.962Z,102995.97
2023-02-05T01:43:13.075Z,102934.72
2023-02-05T01:45:50.981Z,102990.75
2023-02-05T01:48:27.775Z,102983.75
2023-02-05T01:51:04.317Z,102991.66
2023-02-05T01:53:37.080Z,102979.72
2023-02-05T01:56:12.848Z,102988.16
2023-02-05T01:58:49.701Z,102983.84
2023-02-05T02:01:21.158Z,102989.31
2023-02-05T02:03:55.086Z,102986.00
2023-02-05T02:06:26.622Z,102964.88
2023-02-05T02:08:57.984Z,102969.56
2023-02-05T02:11:32.962Z,102978.41
2023-02-05T02:14:07.789Z,102956.16
2023-02-05T02:16:40.476Z,102936.13
2023-02-05T02:19:26.223Z,102983.00
2023-02-05T02:22:22.580Z,102999.84
2023-02-05T02:25:24.158Z,102987.59
2023-02-05T02:28:07.350Z,102970.56
2023-02-05T02:31:09.037Z,102984.19
2023-02-05T02:34:25.459Z,102987.38
2023-02-05T02:37:06.866Z,102974.94
2023-02-05T02:39:50.462Z,102994.19
2023-02-05T02:42:28.983Z,102962.50
2023-02-05T02:45:03.009Z,102977.22
2023-02-05T02:47:40.435Z,102971.09
2023-02-05T02:50:21.252Z,102971.09
2023-02-05T02:52:54.885Z,102952.06
2023-02-05T02:55:26.904Z,102950.44
2023-02-05T02:58:01.148Z,102956.56
2023-02-05T03:00:33.926Z,102959.09
2023-02-05T03:03:08.214Z,102968.31
2023-02-05T03:05:41.891Z,102974.16
2023-02-05T03:08:24.827Z,102953.91
2023-02-05T03:11:02.679Z,102963.31
2023-02-05T03:13:34.615Z,102952.00
2023-02-05T03:16:07.052Z,102934.78
2023-02-05T03:18:38.776Z,102956.31
2023-02-05T03:21:16.644Z,102947.59
2023-02-05T03:23:48.732Z,102914.53
2023-02-05T03:26:29.623Z,102939.28
2023-02-05T03:29:05.198Z,102928.53
2023-02-05T03:31:42.513Z,102931.53
2023-02-05T03:34:37.666Z,102917.88
2023-02-05T03:37:26.614Z,102907.81
2023-02-05T03:40:30.288Z,102921.34
2023-02-05T03:43:16.028Z,102911.28
2023-02-05T03:46:28.636Z,102908.34
2023-02-05T03:49:22.148Z,102897.81
2023-02-05T03:52:07.258Z,102905.78
2023-02-05T03:54:56.718Z,102903.59
2023-02-05T03:57:39.743Z,102894.31
2023-02-05T04:00:12.692Z,102898.38
2023-02-05T04:02:45.355Z,102896.13
2023-02-05T04:05:16.889Z,102879.31
2023-02-05T04:07:49.808Z,102899.28
2023-02-05T04:10:21.088Z,102897.03
2023-02-05T04:12:52.339Z,102905.16
2023-02-05T04:15:24.619Z,102898.22
2023-02-05T04:17:57.846Z,102908.22
2023-02-05T04:20:29.380Z,102903.97
2023-02-05T04:23:00.638Z,102881.09
2023-02-05T04:25:32.262Z,102890.47
2023-02-05T04:28:04.937Z,102884.44
2023-02-05T04:30:36.366Z,102871.38
2023-02-05T04:33:07.711Z,102878.75
2023-02-05T04:35:39.011Z,102849.66
2023-02-05T04:38:10.390Z,102863.25
2023-02-05T04:40:41.723Z,102858.00
2023-02-05T04:43:12.980Z,102840.28
2023-02-05T04:45:44.594Z,102816.69
2023-02-05T04:48:16.361Z,102817.84
2023-02-05T04:50:47.916Z,102812.59
2023-02-05T04:53:19.257Z,102828.06
2023-02-05T04:55:50.531Z,102821.94
2023-02-05T04:58:21.834Z,102833.72
2023-02-05T05:00:53.152Z,102817.63
2023-02-05T05:03:24.505Z,102830.47
2023-02-05T05:05:55.939Z,102811.66
2023-02-05T05:08:28.519Z,102798.59
2023-02-05T05:11:00.729Z,102812.00
2023-02-05T05:13:34.293Z,102824.44
2023-02-05T05:16:07.034Z,102808.25
2023-02-05T05:18:39.667Z,102813.63
2023-02-05T05:21:11.445Z,102824.25
2023-02-05T05:23:42.715Z,102827.69
2023-02-05T05:26:14.038Z,102822.47
2023-02-05T05:28:45.414Z,102808.59
2023-02-05T05:31:18.361Z,102797.31
2023-02-05T05:33:50.073Z,102779.00
2023-02-05T05:36:21.441Z,102761.53
2023-02-05T05:38:52.684Z,102765.22
2023-02-05T05:41:42.905Z,102765.13
2023-02-05T05:44:14.200Z,102771.25
2023-02-05T05:46:45.514Z,102767.56
2023-02-05T05:49:16.760Z,102775.59
2023-02-05T05:51:48.030Z,102769.94
2023-02-05T05:54:19.361Z,102776.16
2023-02-05T05:56:50.692Z,102794.22
2023-02-05T05:59:22.063Z,102795.19
2023-02-05T06:01:53.588Z,102797.81
2023-02-05T06:04:25.003Z,102806.66
2023-02-05T06:06:56.578Z,102767.31
2023-02-05T06:09:28.137Z,102783.25
2023-02-05T06:11:59.605Z,102766.03
2023-02-05T06:14:31.103Z,102790.97
2023-02-05T06:17:02.372Z,102772.00
2023-02-05T06:19:33.663Z,102780.41
2023-02-05T06:22:04.968Z,102764.06
2023-02-05T06:24:36.241Z,102774.13
2023-02-05T06:27:07.553Z,102762.19
2023-02-05T06:29:38.880Z,102778.19
2023-02-05T06:32:10.155Z,102734.41
2023-02-05T06:34:42.079Z,102759.09
2023-02-05T06:37:13.867Z,102756.06
2023-02-05T06:39:45.147Z,102773.97
2023-02-05T06:42:16.502Z,102758.28
2023-02-05T06:44:47.766Z,102745.44
2023-02-05T06:47:19.036Z,102770.44
2023-02-05T06:49:50.308Z,102745.34
2023-02-05T06:52:21.616Z,102748.94
2023-02-05T06:54:52.895Z,102772.16
2023-02-05T06:57:24.279Z,102773.78
2023-02-05T06:59:55.574Z,102777.94
2023-02-05T07:02:27.338Z,102776.88
2023-02-05T07:04:58.670Z,102779.25
2023-02-05T07:07:30.068Z,102778.09
2023-02-05T07:10:01.970Z,102777.81
2023-02-05T07:12:33.429Z,102775.59
2023-02-05T07:15:04.972Z,102776.50
2023-02-05T07:17:36.880Z,102741.34
2023-02-05T07:20:08.693Z,102777.16
2023-02-05T07:22:40.073Z,102767.50
2023-02-05T07:25:11.357Z,102737.91
2023-02-05T07:27:42.783Z,102742.59
2023-02-05T07:30:14.741Z,102751.03
2023-02-05T07:32:46.032Z,102747.59
2023-02-05T07:35:17.534Z,102740.56
2023-02-05T07:37:48.882Z,102743.28
2023-02-05T07:40:20.187Z,102746.88
2023-02-05T07:42:51.457Z,102758.09
2023-02-05T07:45:22.893Z,102772.56
2023-02-05T07:47:54.216Z,102745.19
2023-02-05T07:50:25.531Z,102763.91
2023-02-05T07:52:56.814Z,102758.09
2023-02-05T07:55:28.163Z,102753.34
2023-02-05T07:57:59.442Z,102741.75
2023-02-05T08:00:31.139Z,102765.94
2023-02-05T08:03:02.527Z,102742.06
2023-02-05T08:05:34.366Z,102731.84
2023-02-05T08:08:06.949Z,102753.59
2023-02-05T08:10:38.231Z,102725.06
2023-02-05T08:13:09.528Z,102739.63
2023-02-05T08:15:40.845Z,102757.09
2023-02-05T08:18:12.123Z,102733.47
2023-02-05T08:20:44.202Z,102743.31
2023-02-05T08:23:15.486Z,102737.31
2023-02-05T08:25:47.224Z,102743.25
2023-02-05T08:28:18.626Z,102738.91
2023-02-05T08:30:50.141Z,102751.13
2023-02-05T08:33:21.614Z,102729.81
2023-02-05T08:35:52.984Z,102746.84
2023-02-05T08:38:24.354Z,102768.00
2023-02-05T08:40:55.637Z,102773.41
2023-02-05T08:43:26.998Z,102762.03
2023-02-05T08:45:58.245Z,102774.47
2023-02-05T08:48:29.519Z,102780.91
2023-02-05T08:51:00.892Z,102769.53
2023-02-05T08:53:32.962Z,102749.75
2023-02-05T08:56:05.868Z,102787.50
2023-02-05T08:58:38.450Z,102795.56
2023-02-05T09:01:17.077Z,102767.94
2023-02-05T09:03:48.453Z,102800.50
2023-02-05T09:06:19.706Z,102807.94
2023-02-05T09:08:50.999Z,102798.50
2023-02-05T09:11:23.815Z,102809.63
2023-02-05T09:13:55.205Z,102781.78
2023-02-05T09:16:27.089Z,102784.63
2023-02-05T09:18:59.699Z,102828.63
2023-02-05T09:21:31.309Z,102805.88
2023-02-05T09:24:02.824Z,102818.72
2023-02-05T09:26:34.096Z,102820.81
2023-02-05T09:29:05.369Z,102799.47
2023-02-05T09:31:36.918Z,102788.97
2023-02-05T09:34:08.234Z,102799.03
2023-02-05T09:36:40.461Z,102822.38
2023-02-05T09:39:21.800Z,102808.59
2023-02-05T09:42:05.608Z,102817.69
2023-02-05T09:44:49.559Z,102819.63
2023-02-05T09:47:53.627Z,102790.56
2023-02-05T09:50:29.693Z,102804.44
2023-02-05T09:53:09.483Z,102793.03
2023-02-05T09:55:44.850Z,102816.50
2023-02-05T09:58:21.196Z,102814.84
2023-02-05T10:01:01.032Z,102811.59
2023-02-05T10:03:48.047Z,102794.63
2023-02-05T10:06:19.815Z,102801.16
2023-02-05T10:09:30.292Z,102805.91
2023-02-05T10:12:17.266Z,102812.34
2023-02-05T10:14:58.290Z,102821.25
2023-02-05T10:17:50.113Z,102819.97
2023-02-05T10:20:27.430Z,102820.59
2023-02-05T10:23:16.553Z,102823.59
2023-02-05T10:26:09.755Z,102817.81
2023-02-05T10:29:11.380Z,102815.69
2023-02-05T10:31:48.460Z,102792.22
2023-02-05T10:34:20.062Z,102813.16
2023-02-05T10:36:53.851Z,102811.59
2023-02-05T10:39:28.885Z,102810.94
2023-02-05T10:42:06.640Z,102817.59
2023-02-05T10:44:45.767Z,102811.66
2023-02-05T10:47:25.194Z,102811.59
2023-02-05T10:50:30.586Z,102826.22
2023-02-05T10:53:02.025Z,102828.91
2023-02-05T10:55:33.690Z,102829.09
2023-02-05T10:58:24.325Z,102833.44
2023-02-05T11:00:56.069Z,102831.66
2023-02-05T11:03:27.536Z,102842.25
2023-02-05T11:05:59.442Z,102828.78
2023-02-05T11:08:31.937Z,102851.94
2023-02-05T11:11:04.966Z,102821.47
2023-02-05T11:13:41.711Z,102852.53
2023-02-05T11:16:13.085Z,102849.63
2023-02-05T11:18:54.711Z,102835.16
2023-02-05T11:21:47.827Z,102851.06
2023-02-05T11:24:39.237Z,102843.41
2023-02-05T11:27:24.640Z,102851.91
2023-02-05T11:30:00.014Z,102828.97
2023-02-05T11:32:37.064Z,102836.78
2023-02-05T11:35:32.587Z,102843.97
2023-02-05T11:38:29.598Z,102836.41
2023-02-05T11:41:05.398Z,102843.09
2023-02-05T11:43:56.662Z,102874.63
2023-02-05T11:46:33.877Z,102873.47
2023-02-05T11:49:05.272Z,102853.38
2023-02-05T11:51:44.599Z,102873.97
2023-02-05T11:54:18.979Z,102877.44
2023-02-05T11:57:21.600Z,102855.22
2023-02-05T12:00:02.282Z,102839.75
2023-02-05T12:02:37.099Z,102871.03
2023-02-05T12:05:11.269Z,102879.38
2023-02-05T12:08:01.838Z,102857.56
2023-02-05T12:11:01.256Z,102871.69
2023-02-05T12:14:16.689Z,102868.03
2023-02-05T12:17:10.739Z,102864.69
2023-02-05T12:19:56.506Z,102849.97
2023-02-05T12:22:27.778Z,102864.53
2023-02-05T12:25:40.790Z,102855.09
2023-02-05T12:28:30.230Z,102876.28
2023-02-05T12:31:22.587Z,102845.47
2023-02-05T12:34:15.954Z,102872.50
2023-02-05T12:37:03.673Z,102861.66
2023-02-05T12:39:45.875Z,102854.94
2023-02-05T12:42:17.163Z,102854.94
2023-02-05T12:45:06.677Z,102849.56
2023-02-05T12:48:02.843Z,102850.91
2023-02-05T12:51:08.606Z,102835.53
2023-02-05T12:53:54.460Z,102809.03
2023-02-05T12:56:44.405Z,102832.97
2023-02-05T12:59:37.251Z,102832.84
2023-02-05T13:02:15.828Z,102820.28
2023-02-05T13:05:08.748Z,102867.00
2023-02-05T13:07:46.891Z,102845.09
2023-02-05T13:10:24.183Z,102861.06
2023-02-05T13:13:00.215Z,102865.84
2023-02-05T13:15:39.316Z,102878.34
2023-02-05T13:18:26.316Z,102881.81
2023-02-05T13:21:21.360Z,102885.94
2023-02-05T13:24:19.023Z,102880.13
2023-02-05T13:27:09.382Z,102898.22
2023-02-05T13:29:51.225Z,102880.72
2023-02-05T13:32:30.973Z,102898.22
2023-02-05T13:35:02.450Z,102904.31
2023-02-05T13:37:45.026Z,102879.44
2023-02-05T13:40:48.742Z,102909.13
2023-02-05T13:43:52.871Z,102908.69
2023-02-05T13:47:05.280Z,102894.13
2023-02-05T13:50:15.755Z,102902.97
2023-02-05T13:52:53.046Z,102920.53
2023-02-05T13:55:35.872Z,102928.56
2023-02-05T13:58:25.741Z,102914.69
2023-02-05T14:01:01.955Z,102910.88
2023-02-05T14:03:38.129Z,102927.19
2023-02-05T14:06:27.393Z,102916.28
2023-02-05T14:09:18.953Z,102941.25
2023-02-05T14:11:56.869Z,102927.25
2023-02-05T14:14:38.117Z,102936.00
2023-02-05T14:17:27.685Z,102944.56
2023-02-05T14:20:01.026Z,102948.44
2023-02-05T14:22:43.840Z,102943.50
2023-02-05T14:25:41.547Z,102937.47
2023-02-05T14:28:15.757Z,102933.13
2023-02-05T14:30:51.500Z,102932.16
2023-02-05T14:33:42.417Z,102915.59
2023-02-05T14:36:24.236Z,102920.28
2023-02-05T14:39:07.053Z,102927.19
2023-02-05T14:41:41.680Z,102926.19
2023-02-05T14:44:12.890Z,102928.09
2023-02-05T14:47:17.763Z,102913.22
2023-02-05T14:49:50.800Z,102925.84
2023-02-05T14:52:38.991Z,102941.88
2023-02-05T14:55:13.098Z,102941.75
2023-02-05T14:57:55.399Z,102963.59
2023-02-05T15:00:36.652Z,102966.28
2023-02-05T15:03:17.684Z,102994.34
2023-02-05T15:05:54.221Z,102979.44
2023-02-05T15:08:40.398Z,102999.38
2023-02-05T15:11:21.097Z,102998.03
2023-02-05T15:14:21.244Z,103003.00
2023-02-05T15:17:04.814Z,102994.91
2023-02-05T15:19:44.378Z,102992.09
2023-02-05T15:22:28.340Z,102969.69
2023-02-05T15:25:01.149Z,102974.13
2023-02-05T15:27:46.653Z,102986.44
2023-02-05T15:30:22.113Z,102982.81
2023-02-05T15:33:03.915Z,102962.81
2023-02-05T15:35:37.624Z,102987.53
2023-02-05T15:38:26.585Z,102984.84
2023-02-05T15:41:00.027Z,102971.25
2023-02-05T15:43:31.310Z,102969.53
2023-02-05T15:46:06.810Z,102965.16
2023-02-05T15:48:40.589Z,102961.56
2023-02-05T15:51:27.074Z,102966.34
2023-02-05T15:54:03.017Z,102984.34
2023-02-05T15:56:41.247Z,103002.81
2023-02-05T15:59:17.080Z,102988.19
2023-02-05T16:02:01.637Z,102985.16
2023-02-05T16:04:38.533Z,103010.13
2023-02-05T16:07:23.057Z,103017.72
2023-02-05T16:10:00.145Z,103010.09
2023-02-05T16:12:31.655Z,103023.38
2023-02-05T16:15:06.330Z,103036.50
2023-02-05T16:17:46.234Z,103048.53
2023-02-05T16:20:29.116Z,103017.88
2023-02-05T16:23:23.593Z,103032.03
2023-02-05T16:26:03.020Z,103002.91
2023-02-05T16:28:40.024Z,103049.16
2023-02-05T16:31:20.568Z,103059.44
2023-02-05T16:34:04.532Z,103053.00
2023-02-05T16:36:42.953Z,103050.00
2023-02-05T16:39:45.891Z,103068.75
2023-02-05T16:42:40.067Z,103056.91
2023-02-05T16:45:33.301Z,103043.16
2023-02-05T16:48:26.205Z,103080.75
2023-02-05T16:50:58.026Z,103077.06
2023-02-05T16:53:32.014Z,103060.78
2023-02-05T16:56:21.671Z,103077.13
2023-02-05T16:58:57.588Z,103072.50
2023-02-05T17:01:36.857Z,103085.69
2023-02-05T17:04:08.492Z,103090.03
2023-02-05T17:06:39.798Z,103095.97
2023-02-05T17:09:37.963Z,103092.28
2023-02-05T17:12:32.356Z,103118.16
2023-02-05T17:15:13.762Z,103115.38
2023-02-05T17:17:50.283Z,103112.38
2023-02-05T17:20:28.770Z,103129.19
2023-02-05T17:23:00.032Z,103122.94
2023-02-05T17:25:36.541Z,103117.41
2023-02-05T17:28:16.388Z,103121.50
2023-02-05T17:30:49.154Z,103120.53
2023-02-05T17:33:23.698Z,103122.19
2023-02-05T17:35:55.382Z,103121.50
2023-02-05T17:38:26.804Z,103130.34
2023-02-05T17:41:16.798Z,103120.22
2023-02-05T17:43:48.083Z,103156.75
2023-02-05T17:46:19.434Z,103159.31
2023-02-05T17:48:51.182Z,103146.44
2023-02-05T17:51:26.562Z,103143.09
2023-02-05T17:53:58.570Z,103124.19
2023-02-05T17:56:30.066Z,103122.41
2023-02-05T17:59:01.441Z,103160.03
2023-02-05T18:01:32.850Z,103158.41
2023-02-05T18:04:04.263Z,103173.25
2023-02-05T18:06:36.926Z,103143.25
2023-02-05T18:09:09.567Z,103161.25
2023-02-05T18:11:41.782Z,103166.59
2023-02-05T18:14:13.147Z,103144.16
2023-02-05T18:16:44.737Z,103160.38
2023-02-05T18:19:16.181Z,103154.06
2023-02-05T18:21:48.525Z,103142.19
2023-02-05T18:24:19.838Z,103122.91
2023-02-05T18:26:52.629Z,103187.94
2023-02-05T18:29:24.217Z,103193.03
2023-02-05T18:31:55.962Z,103192.13
2023-02-05T18:34:27.383Z,103188.44
2023-02-05T18:36:59.362Z,103183.56
2023-02-05T18:39:30.816Z,103176.50
2023-02-05T18:42:02.195Z,103196.13
2023-02-05T18:44:33.770Z,103181.59
2023-02-05T18:47:06.169Z,103169.13
2023-02-05T18:49:37.689Z,103197.78
2023-02-05T18:52:10.155Z,103186.47
2023-02-05T18:54:41.434Z,103195.31
2023-02-05T18:57:12.835Z,103199.16
2023-02-05T18:59:45.270Z,103194.16
2023-02-05T19:02:16.584Z,103189.91
2023-02-05T19:04:52.046Z,103157.63
2023-02-05T19:07:24.729Z,103183.69
2023-02-05T19:09:57.477Z,103170.28
2023-02-05T19:12:31.354Z,103207.00
2023-02-05T19:15:02.717Z,103220.94
2023-02-05T19:17:34.092Z,103222.00
2023-02-05T19:20:05.841Z,103217.50
2023-02-05T19:22:37.261Z,103213.31
2023-02-05T19:25:08.761Z,103200.13
2023-02-05T19:27:40.015Z,103186.34
2023-02-05T19:30:13.942Z,103226.03
2023-02-05T19:32:45.863Z,103204.13
2023-02-05T19:35:17.330Z,103227.50
2023-02-05T19:37:48.626Z,103240.13
2023-02-05T19:40:20.128Z,103244.84
2023-02-05T19:42:52.755Z,103242.53
2023-02-05T19:45:24.032Z,103244.16
2023-02-05T19:47:55.303Z,103243.28
2023-02-05T19:50:26.862Z,103268.84
2023-02-05T19:52:58.242Z,103256.38
2023-02-05T19:55:29.557Z,103265.75
2023-02-05T19:58:00.824Z,103266.00
2023-02-05T20:00:32.110Z,103266.09
2023-02-05T20:03:03.549Z,103270.88
2023-02-05T20:05:36.797Z,103262.28
2023-02-05T20:08:08.063Z,103266.69
2023-02-05T20:10:39.412Z,103255.78
2023-02-05T20:13:11.171Z,103274.81
2023-02-05T20:15:42.651Z,103268.59
2023-02-05T20:18:13.971Z,103286.81
2023-02-05T20:20:45.406Z,103267.31
2023-02-05T20:23:17.559Z,103261.25
2023-02-05T20:25:54.372Z,103276.81
2023-02-05T20:28:26.866Z,103268.97
2023-02-05T20:31:18.086Z,103251.09
2023-02-05T20:33:50.149Z,103267.00
2023-02-05T20:36:21.445Z,103261.56
2023-02-05T20:38:57.963Z,103282.25
2023-02-05T20:41:29.435Z,103287.66
2023-02-05T20:44:03.068Z,103253.72
2023-02-05T20:46:35.168Z,103277.16
2023-02-05T20:49:08.632Z,103270.84
2023-02-05T20:51:40.343Z,103274.22
2023-02-05T20:54:12.544Z,103289.78
2023-02-05T20:56:43.929Z,103277.00
2023-02-05T20:59:16.245Z,103292.34
2023-02-05T21:01:47.681Z,103299.94
2023-02-05T21:04:20.295Z,103278.78
2023-02-05T21:06:53.524Z,103307.28
2023-02-05T21:09:25.085Z,103303.88
2023-02-05T21:11:56.457Z,103287.19
2023-02-05T21:14:27.733Z,103310.78
2023-02-05T21:16:59.543Z,103300.56
2023-02-05T21:19:30.883Z,103314.50
2023-02-05T21:22:02.217Z,103308.72
2023-02-05T21:24:33.604Z,103308.84
2023-02-05T21:27:04.920Z,103305.31
2023-02-05T21:29:36.383Z,103300.97
2023-02-05T21:32:08.025Z,103307.09
2023-02-05T21:34:39.458Z,103301.94
2023-02-05T21:37:10.781Z,103282.13
2023-02-05T21:39:43.555Z,103299.53
2023-02-05T21:42:14.815Z,103286.50
2023-02-05T21:44:49.212Z,103304.34
2023-02-05T21:47:20.485Z,103308.81
2023-02-05T21:49:51.763Z,103302.00
2023-02-05T21:52:23.035Z,103293.38
2023-02-05T21:54:54.363Z,103307.25
2023-02-05T21:57:25.616Z,103305.84
2023-02-05T21:59:56.887Z,103276.53
2023-02-05T22:02:28.187Z,103302.25
2023-02-05T22:04:59.570Z,103303.44
2023-02-05T22:07:30.867Z,103303.03
2023-02-05T22:10:02.276Z,103309.69
2023-02-05T22:12:33.533Z,103309.47
2023-02-05T22:15:05.189Z,103303.22
2023-02-05T22:17:36.464Z,103310.38
2023-02-05T22:20:08.089Z,103334.25
2023-02-05T22:22:39.338Z,103316.78
2023-02-05T22:25:10.619Z,103329.16
2023-02-05T22:27:42.754Z,103315.25
2023-02-05T22:30:14.218Z,103327.63
2023-02-05T22:32:45.583Z,103327.41
2023-02-05T22:35:17.125Z,103311.59
2023-02-05T22:37:48.383Z,103339.13
2023-02-05T22:40:19.831Z,103322.53
2023-02-05T22:42:51.107Z,103340.31
2023-02-05T22:45:24.084Z,103334.66
2023-02-05T22:47:55.335Z,103338.28
2023-02-05T22:50:26.620Z,103299.00
2023-02-05T22:52:57.877Z,103323.00
2023-02-05T22:55:29.139Z,103327.78
2023-02-05T22:58:00.539Z,103302.84
2023-02-05T23:00:32.533Z,103330.56
2023-02-05T23:03:04.184Z,103329.66
2023-02-05T23:05:35.760Z,103320.88
2023-02-05T23:08:07.239Z,103326.88
2023-02-05T23:10:38.587Z,103321.50
2023-02-05T23:13:09.857Z,103312.22
2023-02-05T23:15:41.229Z,103298.69
2023-02-05T23:18:12.505Z,103305.69
2023-02-05T23:20:43.775Z,103321.06
2023-02-05T23:23:15.078Z,103321.06
2023-02-05T23:25:49.742Z,103313.97
2023-02-05T23:28:24.243Z,103295.75
2023-02-05T23:30:55.585Z,103319.16
2023-02-05T23:33:26.940Z,103315.66
2023-02-05T23:35:59.028Z,103328.50
2023-02-05T23:38:30.312Z,103316.28
2023-02-05T23:41:02.571Z,103329.47
2023-02-05T23:43:35.469Z,103327.69
2023-02-05T23:46:07.983Z,103332.25
2023-02-05T23:48:39.376Z,103322.97
2023-02-05T23:51:10.647Z,103322.69
2023-02-05T23:53:41.898Z,103317.25
2023-02-05T23:56:13.247Z,103306.72
2023-02-05T23:58:44.570Z,103312.38
